createdAt,value
2023-03-04T00:03:44.438Z,22.70
2023-03-04T00:06:31.588Z,23.77
2023-03-04T00:09:18.724Z,25.27
2023-03-04T00:12:08.809Z,23.48
2023-03-04T00:14:55.892Z,22.38
2023-03-04T00:17:43.032Z,22.98
2023-03-04T00:20:30.109Z,22.17
2023-03-04T00:23:17.231Z,22.45
2023-03-04T00:26:04.414Z,23.48
2023-03-04T00:28:51.460Z,23.63
2023-03-04T00:31:38.693Z,23.45
2023-03-04T00:34:25.775Z,24.63
2023-03-04T00:37:12.821Z,22.67
2023-03-04T00:39:59.870Z,24.75
2023-03-04T00:42:46.928Z,23.05
2023-03-04T00:45:34.067Z,23.45
2023-03-04T00:48:21.173Z,22.00
2023-03-04T00:51:08.337Z,21.63
2023-03-04T00:53:55.436Z,21.63
2023-03-04T00:56:42.540Z,23.30
2023-03-04T00:59:29.570Z,22.23
2023-03-04T01:02:16.671Z,23.17
2023-03-04T01:05:04.349Z,23.75
2023-03-04T01:07:51.513Z,23.63
2023-03-04T01:10:38.545Z,23.08
2023-03-04T01:13:25.708Z,22.73
2023-03-04T01:16:13.124Z,23.95
2023-03-04T01:19:00.271Z,23.35
2023-03-04T01:21:47.465Z,24.02
2023-03-04T01:24:34.893Z,24.10
2023-03-04T01:27:21.999Z,27.80
2023-03-04T01:30:10.351Z,32.80
2023-03-04T01:32:57.496Z,35.28
2023-03-04T01:35:44.591Z,36.22
2023-03-04T01:38:31.708Z,40.67
2023-03-04T01:41:24.385Z,38.10
2023-03-04T01:44:12.554Z,39.63
2023-03-04T01:46:59.777Z,38.28
2023-03-04T01:49:54.733Z,38.08
2023-03-04T01:52:43.118Z,40.28
2023-03-04T01:55:30.780Z,40.45
2023-03-04T01:58:18.046Z,40.42
2023-03-04T02:01:05.092Z,41.15
2023-03-04T02:03:52.291Z,41.70
2023-03-04T02:06:41.254Z,42.03
2023-03-04T02:09:30.067Z,43.20
2023-03-04T02:12:18.811Z,44.97
2023-03-04T02:15:07.005Z,44.97
2023-03-04T02:17:54.243Z,44.90
2023-03-04T02:23:25.588Z,46.22
2023-03-04T02:26:18.775Z,45.35
2023-03-04T02:29:05.978Z,45.65
2023-03-04T02:31:54.601Z,42.55
2023-03-04T02:34:48.971Z,43.42
2023-03-04T02:37:36.074Z,42.38
2023-03-04T02:40:33.324Z,44.38
2023-03-04T02:43:20.547Z,43.03
2023-03-04T02:46:10.847Z,40.20
2023-03-04T02:48:58.072Z,41.22
2023-03-04T02:51:45.218Z,41.42
2023-03-04T02:54:32.656Z,42.35
2023-03-04T02:57:19.702Z,39.60
2023-03-04T03:00:07.644Z,39.30
2023-03-04T03:02:57.108Z,38.58
2023-03-04T03:05:44.638Z,37.35
2023-03-04T03:08:31.778Z,36.65
2023-03-04T03:11:18.807Z,37.85
2023-03-04T03:14:06.027Z,35.50
2023-03-04T03:16:53.202Z,35.53
2023-03-04T03:19:40.294Z,35.05
2023-03-04T03:22:27.367Z,35.38
2023-03-04T03:25:15.738Z,35.08
2023-03-04T03:28:02.872Z,36.17
2023-03-04T03:30:49.957Z,35.65
2023-03-04T03:33:37.103Z,36.55
2023-03-04T03:36:24.200Z,34.97
2023-03-04T03:39:11.498Z,36.85
2023-03-04T03:41:58.519Z,36.65
2023-03-04T03:44:45.577Z,35.35
2023-03-04T03:47:32.664Z,34.53
2023-03-04T03:50:19.767Z,35.78
2023-03-04T03:53:06.784Z,34.88
2023-03-04T03:55:53.847Z,35.35
2023-03-04T03:58:40.942Z,34.83
2023-03-04T04:01:28.077Z,34.40
2023-03-04T04:04:15.227Z,33.17
2023-03-04T04:07:02.615Z,36.63
2023-03-04T04:09:49.705Z,35.33
2023-03-04T04:12:36.788Z,33.15
2023-03-04T04:15:24.006Z,32.88
2023-03-04T04:18:11.066Z,33.17
2023-03-04T04:20:58.184Z,35.15
2023-03-04T04:23:45.257Z,33.25
2023-03-04T04:26:32.314Z,33.80
2023-03-04T04:29:19.605Z,36.63
2023-03-04T04:32:07.389Z,34.53
2023-03-04T04:34:54.532Z,33.58
2023-03-04T04:37:41.572Z,35.88
2023-03-04T04:40:28.643Z,36.97
2023-03-04T04:43:15.713Z,34.30
2023-03-04T04:46:02.812Z,31.27
2023-03-04T04:48:50.327Z,33.45
2023-03-04T04:51:38.905Z,34.42
2023-03-04T04:54:26.030Z,33.67
2023-03-04T04:57:13.128Z,33.92
2023-03-04T05:00:00.338Z,36.13
2023-03-04T05:02:48.002Z,33.63
2023-03-04T05:05:35.063Z,35.92
2023-03-04T05:08:22.141Z,34.53
2023-03-04T05:11:09.265Z,35.30
2023-03-04T05:13:56.468Z,34.72
2023-03-04T05:16:43.501Z,33.88
2023-03-04T05:19:30.634Z,36.05
2023-03-04T05:22:17.770Z,34.10
2023-03-04T05:25:05.734Z,36.25
2023-03-04T05:27:52.806Z,34.78
2023-03-04T05:30:41.421Z,36.50
2023-03-04T05:33:28.547Z,35.22
2023-03-04T05:36:15.706Z,35.13
2023-03-04T05:39:02.901Z,36.20
2023-03-04T05:41:49.968Z,36.55
2023-03-04T05:44:37.042Z,36.92
2023-03-04T05:47:24.123Z,35.38
2023-03-04T05:50:11.873Z,36.15
2023-03-04T05:53:00.508Z,34.85
2023-03-04T05:55:47.983Z,36.80
2023-03-04T05:58:35.133Z,33.72
2023-03-04T06:01:22.175Z,36.45
2023-03-04T06:04:09.320Z,35.53
2023-03-04T06:06:56.427Z,36.03
2023-03-04T06:09:45.332Z,35.22
2023-03-04T06:12:32.415Z,33.42
2023-03-04T06:15:19.598Z,31.58
2023-03-04T06:18:07.861Z,37.00
2023-03-04T06:20:59.153Z,33.60
2023-03-04T06:23:47.205Z,33.40
2023-03-04T06:26:34.290Z,35.88
2023-03-04T06:29:21.507Z,36.60
2023-03-04T06:32:08.600Z,35.42
2023-03-04T06:34:55.814Z,33.55
2023-03-04T06:37:44.010Z,32.33
2023-03-04T06:40:31.061Z,34.25
2023-03-04T06:43:18.731Z,33.83
2023-03-04T06:46:07.775Z,34.72
2023-03-04T06:48:54.912Z,33.90
2023-03-04T06:51:42.016Z,33.95
2023-03-04T06:54:29.798Z,34.75
2023-03-04T06:57:16.877Z,34.50
2023-03-04T07:00:04.541Z,35.63
2023-03-04T07:02:55.104Z,33.35
2023-03-04T07:05:43.590Z,34.25
2023-03-04T07:08:30.654Z,33.50
2023-03-04T07:11:20.248Z,33.25
2023-03-04T07:14:07.296Z,33.05
2023-03-04T07:16:54.683Z,32.75
2023-03-04T07:19:42.084Z,34.03
2023-03-04T07:22:29.375Z,33.13
2023-03-04T07:25:18.127Z,33.22
2023-03-04T07:28:05.216Z,33.05
2023-03-04T07:30:52.323Z,33.72
2023-03-04T07:33:39.592Z,34.75
2023-03-04T07:36:27.050Z,34.67
2023-03-04T07:39:14.294Z,34.42
2023-03-04T07:42:01.346Z,35.25
2023-03-04T07:44:48.390Z,35.00
2023-03-04T07:47:35.494Z,35.25
2023-03-04T07:50:23.494Z,34.78
2023-03-04T07:53:10.596Z,35.53
2023-03-04T07:55:57.768Z,35.55
2023-03-04T07:58:45.329Z,33.20
2023-03-04T08:01:37.406Z,35.15
2023-03-04T08:04:24.535Z,33.70
2023-03-04T08:07:11.618Z,38.13
2023-03-04T08:09:58.724Z,35.45
2023-03-04T08:12:46.890Z,35.38
2023-03-04T08:15:35.359Z,31.20
2023-03-04T08:18:22.534Z,32.50
2023-03-04T08:21:11.203Z,32.13
2023-03-04T08:24:02.573Z,31.88
2023-03-04T08:26:50.814Z,31.95
2023-03-04T08:29:37.991Z,30.02
2023-03-04T08:32:25.176Z,32.15
2023-03-04T08:35:12.354Z,30.42
2023-03-04T08:38:02.346Z,28.85
2023-03-04T08:40:56.991Z,30.30
2023-03-04T08:43:44.257Z,27.73
2023-03-04T08:46:31.608Z,27.33
2023-03-04T08:49:18.801Z,27.48
2023-03-04T08:52:06.788Z,27.30
2023-03-04T08:54:54.136Z,25.15
2023-03-04T08:57:41.263Z,24.95
2023-03-04T09:00:28.386Z,25.58
2023-03-04T09:03:16.647Z,23.60
2023-03-04T09:06:04.762Z,23.00
2023-03-04T09:08:51.929Z,21.60
2023-03-04T09:11:42.016Z,21.33
2023-03-04T09:17:16.096Z,18.40
2023-03-04T09:20:04.656Z,18.73
2023-03-04T09:22:51.751Z,18.55
2023-03-04T09:25:39.671Z,23.98
2023-03-04T09:28:27.008Z,16.13
2023-03-04T09:31:15.222Z,14.90
2023-03-04T09:34:02.358Z,15.52
2023-03-04T09:36:49.452Z,14.35
2023-03-04T09:39:36.988Z,15.02
2023-03-04T09:42:55.930Z,14.82
2023-03-04T09:46:00.249Z,15.43
2023-03-04T09:48:51.066Z,14.77
2023-03-04T09:51:44.973Z,15.15
2023-03-04T09:54:45.325Z,15.75
2023-03-04T09:57:46.514Z,13.82
2023-03-04T10:00:44.232Z,14.32
2023-03-04T10:03:47.909Z,14.60
2023-03-04T10:06:39.366Z,15.38
2023-03-04T10:09:30.381Z,14.40
2023-03-04T10:12:22.304Z,13.60
2023-03-04T10:15:44.177Z,14.20
2023-03-04T10:18:41.381Z,14.38
2023-03-04T10:21:38.385Z,12.05
2023-03-04T10:24:29.462Z,12.65
2023-03-04T10:27:20.086Z,12.23
2023-03-04T10:30:18.965Z,12.15
2023-03-04T10:33:20.145Z,11.73
2023-03-04T10:36:31.750Z,11.82
2023-03-04T10:39:29.825Z,12.32
2023-03-04T10:42:17.011Z,13.18
2023-03-04T10:45:04.566Z,13.43
2023-03-04T10:47:55.948Z,12.77
2023-03-04T10:50:43.288Z,15.68
2023-03-04T10:53:34.101Z,12.18
2023-03-04T10:56:45.628Z,63.38
2023-03-04T10:59:40.985Z,23.95
2023-03-04T11:02:36.405Z,24.15
2023-03-04T11:05:25.858Z,13.23
2023-03-04T11:08:22.427Z,14.35
2023-03-04T11:11:34.700Z,15.70
2023-03-04T11:14:21.736Z,12.63
2023-03-04T11:17:23.780Z,13.55
2023-03-04T11:20:17.468Z,11.90
2023-03-04T11:23:11.775Z,13.27
2023-03-04T11:26:29.076Z,12.98
2023-03-04T11:29:26.613Z,15.00
2023-03-04T11:32:28.091Z,13.32
2023-03-04T11:35:38.700Z,14.52
2023-03-04T11:38:50.167Z,19.27
2023-03-04T11:41:41.854Z,11.73
2023-03-04T11:44:30.881Z,22.25
2023-03-04T11:47:45.891Z,15.75
2023-03-04T11:50:49.044Z,11.52
2023-03-04T11:53:59.803Z,12.02
2023-03-04T11:56:53.847Z,40.83
2023-03-04T12:00:08.862Z,13.52
2023-03-04T12:03:14.916Z,16.23
2023-03-04T12:06:34.438Z,24.45
2023-03-04T12:09:30.115Z,14.73
2023-03-04T12:12:27.257Z,12.88
2023-03-04T12:15:55.131Z,16.02
2023-03-04T12:18:57.619Z,12.85
2023-03-04T12:22:07.070Z,15.73
2023-03-04T12:25:17.998Z,14.05
2023-03-04T12:28:27.973Z,13.43
2023-03-04T12:31:34.054Z,14.07
2023-03-04T12:34:52.830Z,13.00
2023-03-04T12:38:05.024Z,12.70
2023-03-04T12:40:55.129Z,13.57
2023-03-04T12:46:44.433Z,14.55
2023-03-04T12:50:02.646Z,14.65
2023-03-04T12:53:24.138Z,14.77
2023-03-04T12:56:33.964Z,14.82
2023-03-04T12:59:24.172Z,28.35
2023-03-04T13:02:13.877Z,15.50
2023-03-04T13:05:26.807Z,14.50
2023-03-04T13:08:19.701Z,14.77
2023-03-04T13:11:28.569Z,15.95
2023-03-04T13:14:17.515Z,19.42
2023-03-04T13:17:43.659Z,14.88
2023-03-04T13:20:31.053Z,17.30
2023-03-04T13:23:29.921Z,33.78
2023-03-04T13:26:21.116Z,14.27
2023-03-04T13:29:14.281Z,18.83
2023-03-04T13:32:10.709Z,12.93
2023-03-04T13:34:58.309Z,21.92
2023-03-04T13:37:58.294Z,14.50
2023-03-04T13:43:44.009Z,13.32
2023-03-04T13:46:42.852Z,13.50
2023-03-04T13:49:30.074Z,12.90
2023-03-04T13:52:44.401Z,13.82
2023-03-04T13:55:41.195Z,13.30
2023-03-04T13:58:28.397Z,12.93
2023-03-04T14:01:28.777Z,14.10
2023-03-04T14:04:16.222Z,14.02
2023-03-04T14:07:37.313Z,14.40
2023-03-04T14:10:25.314Z,14.48
2023-03-04T14:13:12.480Z,13.13
2023-03-04T14:16:00.562Z,14.35
2023-03-04T14:19:01.306Z,15.32
2023-03-04T14:21:48.518Z,15.07
2023-03-04T14:24:35.781Z,14.90
2023-03-04T14:27:23.028Z,15.23
2023-03-04T14:30:28.974Z,13.85
2023-03-04T14:33:25.620Z,14.52
2023-03-04T14:36:24.359Z,14.20
2023-03-04T14:39:18.260Z,13.98
2023-03-04T14:42:11.204Z,14.13
2023-03-04T14:45:00.851Z,13.40
2023-03-04T14:47:49.099Z,13.93
2023-03-04T14:50:37.782Z,14.13
2023-03-04T14:53:34.013Z,13.88
2023-03-04T14:56:29.265Z,13.50
2023-03-04T14:59:19.529Z,12.75
2023-03-04T15:02:42.013Z,12.52
2023-03-04T15:05:32.732Z,13.23
2023-03-04T15:08:29.434Z,14.25
2023-03-04T15:11:27.336Z,12.73
2023-03-04T15:14:50.271Z,13.05
2023-03-04T15:17:42.895Z,13.50
2023-03-04T15:20:32.184Z,12.45
2023-03-04T15:23:19.365Z,14.55
2023-03-04T15:26:10.224Z,12.38
2023-03-04T15:28:57.583Z,10.93
2023-03-04T15:31:48.403Z,11.85
2023-03-04T15:34:35.662Z,10.80
2023-03-04T15:37:27.610Z,10.68
2023-03-04T15:40:19.050Z,12.57
2023-03-04T15:43:07.716Z,10.93
2023-03-04T15:45:55.094Z,12.00
2023-03-04T15:48:42.433Z,12.10
2023-03-04T15:51:30.633Z,12.10
2023-03-04T15:54:18.104Z,12.55
2023-03-04T15:57:17.415Z,11.32
2023-03-04T16:00:05.299Z,11.60
2023-03-04T16:02:52.571Z,12.43
2023-03-04T16:05:40.039Z,11.60
2023-03-04T16:08:27.957Z,11.48
2023-03-04T16:11:22.161Z,11.45
2023-03-04T16:14:11.600Z,11.45
2023-03-04T16:16:59.112Z,11.15
2023-03-04T16:19:46.953Z,11.18
2023-03-04T16:22:34.494Z,10.50
2023-03-04T16:25:23.075Z,11.00
2023-03-04T16:28:12.872Z,11.30
2023-03-04T16:31:00.249Z,10.27
2023-03-04T16:33:48.410Z,10.70
2023-03-04T16:36:36.217Z,11.52
2023-03-04T16:39:26.135Z,10.80
2023-03-04T16:42:20.043Z,9.27
2023-03-04T16:45:16.202Z,9.02
2023-03-04T16:48:03.566Z,7.97
2023-03-04T16:50:51.867Z,7.57
2023-03-04T16:53:40.764Z,7.38
2023-03-04T16:56:29.755Z,8.18
2023-03-04T16:59:17.736Z,6.93
2023-03-04T17:02:13.469Z,7.38
2023-03-04T17:05:01.120Z,6.55
2023-03-04T17:07:48.256Z,6.63
2023-03-04T17:10:35.594Z,7.40
2023-03-04T17:13:23.252Z,7.03
2023-03-04T17:16:13.151Z,6.68
2023-03-04T17:21:48.129Z,7.63
2023-03-04T17:24:35.498Z,7.68
2023-03-04T17:27:23.201Z,7.90
2023-03-04T17:30:13.326Z,7.05
2023-03-04T17:35:49.074Z,8.15
2023-03-04T17:38:45.667Z,8.07
2023-03-04T17:41:36.024Z,8.18
2023-03-04T17:44:24.059Z,7.78
2023-03-04T17:47:12.144Z,8.23
2023-03-04T17:49:59.789Z,8.75
2023-03-04T17:52:48.652Z,9.00
2023-03-04T17:55:36.540Z,10.00
2023-03-04T17:58:25.266Z,9.63
2023-03-04T18:01:20.924Z,9.95
2023-03-04T18:04:09.198Z,10.07
2023-03-04T18:06:56.826Z,10.85
2023-03-04T18:09:44.958Z,10.60
2023-03-04T18:12:33.228Z,10.02
2023-03-04T18:15:21.001Z,10.13
2023-03-04T18:18:08.990Z,9.93
2023-03-04T18:21:02.138Z,9.82
2023-03-04T18:23:49.933Z,9.38
2023-03-04T18:26:37.998Z,9.80
2023-03-04T18:29:26.074Z,9.45
2023-03-04T18:32:14.260Z,9.90
2023-03-04T18:35:02.412Z,9.60
2023-03-04T18:37:50.809Z,9.73
2023-03-04T18:40:43.897Z,10.13
2023-03-04T18:43:31.619Z,10.40
2023-03-04T18:46:29.952Z,9.48
2023-03-04T18:49:22.320Z,10.20
2023-03-04T18:52:10.136Z,10.43
2023-03-04T18:54:59.414Z,11.23
2023-03-04T18:57:51.835Z,10.27
2023-03-04T19:00:40.004Z,10.88
2023-03-04T19:03:28.985Z,10.27
2023-03-04T19:06:17.494Z,9.93
2023-03-04T19:09:07.094Z,10.85
2023-03-04T19:11:55.235Z,10.77
2023-03-04T19:14:43.180Z,10.65
2023-03-04T19:17:33.266Z,10.20
2023-03-04T19:20:21.402Z,10.52
2023-03-04T19:23:10.867Z,11.18
2023-03-04T19:26:00.306Z,11.10
2023-03-04T19:28:48.617Z,11.60
2023-03-04T19:31:41.033Z,9.45
2023-03-04T19:34:29.545Z,10.32
2023-03-04T19:37:18.556Z,10.52
2023-03-04T19:40:08.016Z,10.20
2023-03-04T19:42:56.968Z,10.73
2023-03-04T19:45:53.642Z,10.63
2023-03-04T19:48:43.288Z,11.18
2023-03-04T19:51:33.216Z,10.95
2023-03-04T19:54:20.702Z,12.90
2023-03-04T19:57:08.818Z,12.15
2023-03-04T19:59:56.564Z,10.82
2023-03-04T20:02:46.051Z,11.45
2023-03-04T20:05:35.462Z,11.40
2023-03-04T20:08:24.424Z,12.98
2023-03-04T20:11:15.156Z,12.10
2023-03-04T20:14:05.034Z,12.13
2023-03-04T20:16:53.227Z,11.98
2023-03-04T20:19:41.383Z,11.43
2023-03-04T20:22:29.743Z,12.57
2023-03-04T20:25:19.134Z,11.95
2023-03-04T20:28:07.316Z,13.10
2023-03-04T20:31:09.546Z,12.25
2023-03-04T20:34:02.181Z,12.73
2023-03-04T20:36:50.267Z,13.30
2023-03-04T20:39:38.469Z,13.23
2023-03-04T20:42:26.843Z,13.52
2023-03-04T20:45:16.255Z,13.45
2023-03-04T20:48:04.613Z,12.18
2023-03-04T20:50:52.436Z,13.13
2023-03-04T20:53:40.352Z,13.00
2023-03-04T20:56:28.758Z,13.73
2023-03-04T20:59:18.186Z,13.52
2023-03-04T21:02:07.817Z,14.23
2023-03-04T21:04:56.019Z,13.15
2023-03-04T21:07:44.198Z,14.82
2023-03-04T21:10:35.813Z,14.38
2023-03-04T21:13:26.795Z,14.23
2023-03-04T21:16:16.663Z,13.50
2023-03-04T21:19:06.521Z,14.43
2023-03-04T21:21:56.694Z,13.70
2023-03-04T21:24:45.870Z,14.60
2023-03-04T21:27:33.406Z,14.15
2023-03-04T21:30:21.393Z,13.63
2023-03-04T21:33:18.310Z,14.02
2023-03-04T21:36:06.467Z,14.05
2023-03-04T21:38:54.634Z,13.55
2023-03-04T21:41:42.647Z,14.52
2023-03-04T21:44:45.017Z,13.45
2023-03-04T21:47:35.861Z,15.23
2023-03-04T21:50:25.843Z,13.27
2023-03-04T21:53:13.676Z,14.90
2023-03-04T21:56:01.469Z,14.85
2023-03-04T21:58:49.023Z,14.65
2023-03-04T22:01:36.652Z,14.23
2023-03-04T22:04:24.107Z,13.45
2023-03-04T22:07:11.167Z,15.10
2023-03-04T22:09:59.625Z,14.18
2023-03-04T22:12:46.735Z,14.70
2023-03-04T22:15:33.936Z,14.43
2023-03-04T22:18:21.066Z,14.98
2023-03-04T22:21:13.369Z,14.07
2023-03-04T22:24:00.547Z,13.05
2023-03-04T22:26:47.734Z,14.30
2023-03-04T22:29:37.123Z,15.05
2023-03-04T22:32:24.315Z,14.82
2023-03-04T22:35:11.829Z,14.73
2023-03-04T22:37:58.947Z,15.25
2023-03-04T22:40:46.006Z,14.45
2023-03-04T22:43:33.118Z,14.80
2023-03-04T22:46:25.874Z,14.07
2023-03-04T22:49:14.216Z,14.23
2023-03-04T22:52:01.429Z,13.95
2023-03-04T22:54:48.647Z,14.43
2023-03-04T22:57:35.694Z,14.15
2023-03-04T23:00:26.276Z,13.30
2023-03-04T23:03:13.421Z,14.60
2023-03-04T23:06:02.938Z,13.60
2023-03-04T23:08:51.323Z,12.30
2023-03-04T23:11:39.662Z,13.52
2023-03-04T23:14:26.803Z,14.25
2023-03-04T23:17:14.111Z,13.80
2023-03-04T23:20:01.177Z,14.32
2023-03-04T23:22:48.993Z,13.75
2023-03-04T23:25:37.076Z,12.85
2023-03-04T23:28:24.170Z,13.00
2023-03-04T23:31:14.951Z,13.68
2023-03-04T23:34:03.656Z,12.98
2023-03-04T23:36:50.749Z,13.73
2023-03-04T23:39:37.815Z,13.48
2023-03-04T23:42:24.956Z,13.80
2023-03-04T23:45:12.447Z,13.38
2023-03-04T23:47:59.596Z,13.15
2023-03-04T23:50:54.075Z,13.25
2023-03-04T23:53:41.340Z,13.93
2023-03-04T23:56:30.613Z,13.32
2023-03-04T23:59:17.798Z,12.80
